Time,TemperatureF,DewpointF,PressureIn,WindDirection,WindDirectionDegrees,WindSpeedMPH,WindSpeedGustMPH,Humidity,HourlyPrecipIn,Conditions,Clouds,dailyrainin,SolarRadiationWatts/m^2,SoftwareType,DateUTC
2013-03-03 00:02:00,32.0,18.0,-100.00,NNW,347,8.0,16.0,55,0.00,,,0.00,0.000000,,2013-03-03 05:02:00,
2013-03-03 00:32:00,30.0,16.0,-100.00,NNW,334,4.0,14.0,55,0.00,,,0.00,0.000000,,2013-03-03 05:32:00,
2013-03-03 00:42:00,30.0,16.0,-100.00,NNW,334,4.0,14.0,55,0.00,,,0.00,0.000000,,2013-03-03 05:42:00,
2013-03-03 00:52:00,30.0,16.0,-100.00,NNW,334,4.0,14.0,55,0.00,,,0.00,0.000000,,2013-03-03 05:52:00,
2013-03-03 01:02:00,30.0,16.0,-100.00,NNW,334,4.0,14.0,55,0.00,,,0.00,0.000000,,2013-03-03 06:02:00,
2013-03-03 01:22:00,30.0,16.0,-100.00,NW,320,5.0,10.0,55,0.00,,,0.00,0.000000,,2013-03-03 06:22:00,
2013-03-03 01:32:00,30.0,16.0,-100.00,NW,320,5.0,10.0,55,0.00,,,0.00,0.000000,,2013-03-03 06:32:00,
2013-03-03 01:42:00,30.0,16.0,-100.00,NW,320,5.0,10.0,55,0.00,,,0.00,0.000000,,2013-03-03 06:42:00,
2013-03-03 01:52:00,30.0,16.0,-100.00,NW,320,5.0,10.0,55,0.00,,,0.00,0.000000,,2013-03-03 06:52:00,
2013-03-03 02:01:00,30.0,16.0,-100.00,NW,320,5.0,10.0,55,0.00,,,0.00,0.000000,,2013-03-03 07:01:00,
2013-03-03 02:32:00,28.0,14.0,-100.00,NNW,329,3.0,9.0,55,0.00,,,0.00,0.000000,,2013-03-03 07:32:00,
2013-03-03 02:42:00,28.0,14.0,-100.00,NNW,329,3.0,9.0,55,0.00,,,0.00,0.000000,,2013-03-03 07:42:00,
2013-03-03 02:52:00,28.0,14.0,-100.00,NNW,329,3.0,9.0,55,0.00,,,0.00,0.000000,,2013-03-03 07:52:00,
2013-03-03 03:01:00,28.0,14.0,-100.00,NNW,329,3.0,9.0,55,0.00,,,0.00,0.000000,,2013-03-03 08:01:00,
2013-03-03 03:32:00,27.0,15.0,-100.00,North,10,1.0,4.0,59,0.00,,,0.00,0.000000,,2013-03-03 08:32:00,
2013-03-03 03:42:00,27.0,15.0,-100.00,North,10,1.0,4.0,59,0.00,,,0.00,0.000000,,2013-03-03 08:42:00,
2013-03-03 03:54:00,27.0,15.0,-100.00,North,10,1.0,4.0,59,0.00,,,0.00,0.000000,,2013-03-03 08:54:00,
2013-03-03 04:02:00,27.0,15.0,-100.00,North,10,1.0,4.0,59,0.00,,,0.00,0.000000,,2013-03-03 09:02:00,
2013-03-03 04:32:00,26.0,15.0,-100.00,NNE,16,2.0,4.0,62,0.00,,,0.00,0.000000,,2013-03-03 09:32:00,
2013-03-03 04:42:00,26.0,15.0,-100.00,NNE,16,2.0,4.0,62,0.00,,,0.00,0.000000,,2013-03-03 09:42:00,
2013-03-03 04:52:00,26.0,15.0,-100.00,NNE,16,2.0,4.0,62,0.00,,,0.00,0.000000,,2013-03-03 09:52:00,
2013-03-03 05:01:00,26.0,15.0,-100.00,NNE,16,2.0,4.0,62,0.00,,,0.00,0.000000,,2013-03-03 10:01:00,
2013-03-03 05:32:00,24.0,15.0,-100.00,North,2,1.0,4.0,69,0.00,,,0.00,0.000000,,2013-03-03 10:32:00,
2013-03-03 05:42:00,24.0,15.0,-100.00,North,2,1.0,4.0,69,0.00,,,0.00,0.000000,,2013-03-03 10:42:00,
2013-03-03 05:52:00,24.0,15.0,-100.00,North,2,1.0,4.0,69,0.00,,,0.00,0.000000,,2013-03-03 10:52:00,
2013-03-03 06:01:00,24.0,15.0,-100.00,North,2,1.0,4.0,69,0.00,,,0.00,0.000000,,2013-03-03 11:01:00,
2013-03-03 06:32:00,22.0,16.0,-100.00,WNW,298,0.0,1.0,76,0.00,,,0.00,0.000000,,2013-03-03 11:32:00,
2013-03-03 06:42:00,22.0,16.0,-100.00,WNW,298,0.0,1.0,76,0.00,,,0.00,0.000000,,2013-03-03 11:42:00,
2013-03-03 06:53:00,22.0,16.0,-100.00,WNW,298,0.0,1.0,76,0.00,,,0.00,0.000000,,2013-03-03 11:53:00,
2013-03-03 07:02:00,22.0,16.0,-100.00,WNW,298,0.0,1.0,76,0.00,,,0.00,0.000000,,2013-03-03 12:02:00,
2013-03-03 07:32:00,20.0,15.0,-100.00,SSW,211,1.0,2.0,79,0.00,,,0.00,2.000000,,2013-03-03 12:32:00,
2013-03-03 07:43:00,20.0,15.0,-100.00,SSW,211,1.0,2.0,79,0.00,,,0.00,2.000000,,2013-03-03 12:43:00,
2013-03-03 07:53:00,20.0,15.0,-100.00,SSW,211,1.0,2.0,79,0.00,,,0.00,2.000000,,2013-03-03 12:53:00,
2013-03-03 08:02:00,20.0,15.0,-100.00,SSW,211,1.0,2.0,79,0.00,,,0.00,2.000000,,2013-03-03 13:02:00,
2013-03-03 08:32:00,26.0,21.0,-100.00,North,355,2.0,4.0,80,0.00,,,0.00,28.000000,,2013-03-03 13:32:00,
2013-03-03 08:42:00,26.0,21.0,-100.00,North,355,2.0,4.0,80,0.00,,,0.00,28.000000,,2013-03-03 13:42:00,
2013-03-03 08:52:00,26.0,21.0,-100.00,North,355,2.0,4.0,80,0.00,,,0.00,28.000000,,2013-03-03 13:52:00,
2013-03-03 09:02:00,26.0,21.0,-100.00,North,355,2.0,4.0,80,0.00,,,0.00,28.000000,,2013-03-03 14:02:00,
2013-03-03 09:32:00,30.0,13.0,-100.00,NNW,340,4.0,7.0,49,0.00,,,0.00,99.000000,,2013-03-03 14:32:00,
2013-03-03 09:42:00,30.0,13.0,-100.00,NNW,340,4.0,7.0,49,0.00,,,0.00,99.000000,,2013-03-03 14:42:00,
2013-03-03 09:52:00,30.0,13.0,-100.00,NNW,340,4.0,7.0,49,0.00,,,0.00,99.000000,,2013-03-03 14:52:00,
2013-03-03 10:02:00,30.0,13.0,-100.00,NNW,340,4.0,7.0,49,0.00,,,0.00,99.000000,,2013-03-03 15:02:00,
2013-03-03 10:32:00,34.0,14.0,-100.00,North,5,4.0,10.0,44,0.00,,,0.00,451.000000,,2013-03-03 15:32:00,
2013-03-03 10:42:00,34.0,14.0,-100.00,North,5,4.0,10.0,44,0.00,,,0.00,451.000000,,2013-03-03 15:42:00,
2013-03-03 10:52:00,34.0,14.0,-100.00,North,5,4.0,10.0,44,0.00,,,0.00,451.000000,,2013-03-03 15:52:00,
2013-03-03 11:02:00,34.0,14.0,-100.00,North,5,4.0,10.0,44,0.00,,,0.00,451.000000,,2013-03-03 16:02:00,
2013-03-03 11:32:00,37.0,15.0,-100.00,North,359,5.0,12.0,40,0.00,,,0.00,729.000000,,2013-03-03 16:32:00,
2013-03-03 11:42:00,37.0,15.0,-100.00,North,359,5.0,12.0,40,0.00,,,0.00,729.000000,,2013-03-03 16:42:00,
2013-03-03 11:52:00,37.0,15.0,-100.00,North,359,5.0,12.0,40,0.00,,,0.00,729.000000,,2013-03-03 16:52:00,
2013-03-03 12:01:00,37.0,15.0,-100.00,North,359,5.0,12.0,40,0.00,,,0.00,729.000000,,2013-03-03 17:01:00,
2013-03-03 12:32:00,40.0,16.0,-100.00,NNW,345,3.0,14.0,37,0.00,,,0.00,847.000000,,2013-03-03 17:32:00,
2013-03-03 12:42:00,40.0,16.0,-100.00,NNW,345,3.0,14.0,37,0.00,,,0.00,847.000000,,2013-03-03 17:42:00,
2013-03-03 12:52:00,40.0,16.0,-100.00,NNW,345,3.0,14.0,37,0.00,,,0.00,847.000000,,2013-03-03 17:52:00,
2013-03-03 13:02:00,40.0,16.0,-100.00,NNW,345,3.0,14.0,37,0.00,,,0.00,847.000000,,2013-03-03 18:02:00,
2013-03-03 13:22:00,41.0,15.0,-100.00,North,352,5.0,14.0,34,0.00,,,0.00,895.000000,,2013-03-03 18:22:00,
2013-03-03 13:32:00,41.0,15.0,-100.00,North,352,5.0,14.0,34,0.00,,,0.00,895.000000,,2013-03-03 18:32:00,
2013-03-03 13:42:00,41.0,15.0,-100.00,North,352,5.0,14.0,34,0.00,,,0.00,895.000000,,2013-03-03 18:42:00,
2013-03-03 13:52:00,41.0,15.0,-100.00,North,352,5.0,14.0,34,0.00,,,0.00,895.000000,,2013-03-03 18:52:00,
2013-03-03 14:02:00,41.0,15.0,-100.00,North,352,5.0,14.0,34,0.00,,,0.00,895.000000,,2013-03-03 19:02:00,
2013-03-03 14:22:00,42.0,16.0,-100.00,NW,316,7.0,16.0,34,0.00,,,0.00,858.000000,,2013-03-03 19:22:00,
2013-03-03 14:32:00,42.0,16.0,-100.00,NW,316,7.0,16.0,34,0.00,,,0.00,858.000000,,2013-03-03 19:32:00,
2013-03-03 14:42:00,42.0,16.0,-100.00,NW,316,7.0,16.0,34,0.00,,,0.00,858.000000,,2013-03-03 19:42:00,
2013-03-03 14:52:00,42.0,16.0,-100.00,NW,316,7.0,16.0,34,0.00,,,0.00,858.000000,,2013-03-03 19:52:00,
2013-03-03 15:01:00,42.0,16.0,-100.00,NW,316,7.0,16.0,34,0.00,,,0.00,858.000000,,2013-03-03 20:01:00,
2013-03-03 15:32:00,41.0,14.0,-100.00,NNW,338,7.0,15.0,33,0.00,,,0.00,765.000000,,2013-03-03 20:32:00,
2013-03-03 15:43:00,41.0,14.0,-100.00,NNW,338,7.0,15.0,33,0.00,,,0.00,765.000000,,2013-03-03 20:43:00,
2013-03-03 15:53:00,41.0,14.0,-100.00,NNW,338,7.0,15.0,33,0.00,,,0.00,765.000000,,2013-03-03 20:53:00,
2013-03-03 16:02:00,41.0,14.0,-100.00,NNW,338,7.0,15.0,33,0.00,,,0.00,765.000000,,2013-03-03 21:02:00,
2013-03-03 16:32:00,40.0,15.0,-100.00,NW,324,7.0,16.0,35,0.00,,,0.00,567.000000,,2013-03-03 21:32:00,
2013-03-03 16:42:00,40.0,15.0,-100.00,NW,324,7.0,16.0,35,0.00,,,0.00,567.000000,,2013-03-03 21:42:00,
2013-03-03 16:52:00,40.0,15.0,-100.00,NW,324,7.0,16.0,35,0.00,,,0.00,567.000000,,2013-03-03 21:52:00,
2013-03-03 17:02:00,40.0,15.0,-100.00,NW,324,7.0,16.0,35,0.00,,,0.00,567.000000,,2013-03-03 22:02:00,
2013-03-03 17:32:00,38.0,13.0,-100.00,WNW,301,8.0,15.0,36,0.00,,,0.00,381.000000,,2013-03-03 22:32:00,
2013-03-03 17:42:00,38.0,13.0,-100.00,WNW,301,8.0,15.0,36,0.00,,,0.00,381.000000,,2013-03-03 22:42:00,
2013-03-03 17:52:00,38.0,13.0,-100.00,WNW,301,8.0,15.0,36,0.00,,,0.00,381.000000,,2013-03-03 22:52:00,
2013-03-03 18:02:00,38.0,13.0,-100.00,WNW,301,8.0,15.0,36,0.00,,,0.00,381.000000,,2013-03-03 23:02:00,
2013-03-03 18:32:00,35.0,13.0,-100.00,NW,318,8.0,14.0,39,0.00,,,0.00,161.000000,,2013-03-03 23:32:00,
2013-03-03 18:42:00,35.0,13.0,-100.00,NW,318,8.0,14.0,39,0.00,,,0.00,161.000000,,2013-03-03 23:42:00,
2013-03-03 18:52:00,35.0,13.0,-100.00,NW,318,8.0,14.0,39,0.00,,,0.00,161.000000,,2013-03-03 23:52:00,
2013-03-03 19:02:00,35.0,13.0,-100.00,NW,318,8.0,14.0,39,0.00,,,0.00,161.000000,,2013-03-04 00:02:00,
2013-03-03 19:32:00,32.0,13.0,-100.00,NW,322,5.0,14.0,45,0.00,,,0.00,6.000000,,2013-03-04 00:32:00,
2013-03-03 19:42:00,32.0,13.0,-100.00,NW,322,5.0,14.0,45,0.00,,,0.00,6.000000,,2013-03-04 00:42:00,
2013-03-03 19:52:00,32.0,13.0,-100.00,NW,322,5.0,14.0,45,0.00,,,0.00,6.000000,,2013-03-04 00:52:00,
2013-03-03 20:01:00,32.0,13.0,-100.00,NW,322,5.0,14.0,45,0.00,,,0.00,6.000000,,2013-03-04 01:01:00,
2013-03-03 20:32:00,31.0,15.0,-100.00,NW,312,5.0,11.0,51,0.00,,,0.00,0.000000,,2013-03-04 01:32:00,
2013-03-03 20:42:00,31.0,15.0,-100.00,NW,312,5.0,11.0,51,0.00,,,0.00,0.000000,,2013-03-04 01:42:00,
2013-03-03 20:52:00,31.0,15.0,-100.00,NW,312,5.0,11.0,51,0.00,,,0.00,0.000000,,2013-03-04 01:52:00,
2013-03-03 21:01:00,31.0,15.0,-100.00,NW,312,5.0,11.0,51,0.00,,,0.00,0.000000,,2013-03-04 02:01:00,
2013-03-03 21:32:00,31.0,15.0,-100.00,NW,311,6.0,13.0,50,0.00,,,0.00,0.000000,,2013-03-04 02:32:00,
2013-03-03 21:42:00,31.0,15.0,-100.00,NW,311,6.0,13.0,50,0.00,,,0.00,0.000000,,2013-03-04 02:42:00,
2013-03-03 21:53:00,31.0,15.0,-100.00,NW,311,6.0,13.0,50,0.00,,,0.00,0.000000,,2013-03-04 02:53:00,
2013-03-03 22:02:00,31.0,15.0,-100.00,NW,311,6.0,13.0,50,0.00,,,0.00,0.000000,,2013-03-04 03:02:00,
2013-03-03 22:22:00,30.0,13.0,-100.00,NW,321,5.0,11.0,49,0.00,,,0.00,0.000000,,2013-03-04 03:22:00,
2013-03-03 22:32:00,30.0,13.0,-100.00,NW,321,5.0,11.0,49,0.00,,,0.00,0.000000,,2013-03-04 03:32:00,
2013-03-03 22:42:00,30.0,13.0,-100.00,NW,321,5.0,11.0,49,0.00,,,0.00,0.000000,,2013-03-04 03:42:00,
2013-03-03 22:53:00,30.0,13.0,-100.00,NW,321,5.0,11.0,49,0.00,,,0.00,0.000000,,2013-03-04 03:53:00,
2013-03-03 23:01:00,30.0,13.0,-100.00,NW,321,5.0,11.0,49,0.00,,,0.00,0.000000,,2013-03-04 04:01:00,
2013-03-03 23:32:00,29.0,14.0,-100.00,NNW,347,3.0,6.0,52,0.00,,,0.00,0.000000,,2013-03-04 04:32:00,
2013-03-03 23:42:00,29.0,14.0,-100.00,NNW,347,3.0,6.0,52,0.00,,,0.00,0.000000,,2013-03-04 04:42:00,
2013-03-03 23:52:00,29.0,14.0,-100.00,NNW,347,3.0,6.0,52,0.00,,,0.00,0.000000,,2013-03-04 04:52:00,